createdAt,value
2023-08-05T00:00:52.360Z,12.00
2023-08-05T00:03:29.027Z,13.50
2023-08-05T00:05:57.001Z,16.00
2023-08-05T00:10:54.648Z,11.00
2023-08-05T00:13:22.680Z,12.67
2023-08-05T00:15:51.573Z,11.50
2023-08-05T00:18:19.634Z,12.00
2023-08-05T00:20:50.125Z,13.00
2023-08-05T00:23:18.096Z,16.00
2023-08-05T00:25:46.238Z,14.00
2023-08-05T00:28:14.113Z,14.00
2023-08-05T00:30:42.130Z,15.00
2023-08-05T00:33:10.049Z,12.00
2023-08-05T00:35:39.062Z,17.50
2023-08-05T00:38:06.904Z,17.00
2023-08-05T00:43:04.983Z,17.00
2023-08-05T00:45:34.379Z,18.00
2023-08-05T00:48:02.534Z,16.00
2023-08-05T00:50:30.517Z,18.00
2023-08-05T00:52:59.511Z,18.00
2023-08-05T00:55:27.916Z,20.00
2023-08-05T00:57:55.866Z,22.00
2023-08-05T01:00:24.293Z,18.00
2023-08-05T01:02:52.416Z,16.00
2023-08-05T01:05:22.234Z,17.00
2023-08-05T01:07:50.345Z,17.00
2023-08-05T01:12:46.026Z,19.00
2023-08-05T01:15:13.898Z,20.00
2023-08-05T01:17:41.850Z,16.00
2023-08-05T01:20:10.277Z,17.00
2023-08-05T01:22:42.380Z,15.00
2023-08-05T01:25:27.062Z,14.00
2023-08-05T01:27:56.065Z,13.00
2023-08-05T01:30:25.183Z,11.00
2023-08-05T01:32:53.592Z,10.00
2023-08-05T01:35:22.251Z,14.00
2023-08-05T01:37:50.570Z,8.00
2023-08-05T01:40:18.673Z,14.00
2023-08-05T01:42:46.668Z,8.50
2023-08-05T01:45:14.767Z,10.00
2023-08-05T01:47:42.846Z,14.00
2023-08-05T01:50:10.940Z,11.00
2023-08-05T01:52:39.353Z,10.00
2023-08-05T01:55:07.511Z,10.00
2023-08-05T01:57:35.704Z,9.00
2023-08-05T02:00:04.250Z,9.00
2023-08-05T02:02:41.717Z,10.00
2023-08-05T02:05:11.028Z,8.00
2023-08-05T02:07:39.212Z,9.00
2023-08-05T02:10:07.594Z,10.50
2023-08-05T02:12:35.612Z,7.00
2023-08-05T02:15:03.687Z,8.00
2023-08-05T02:17:31.678Z,9.50
2023-08-05T02:19:59.801Z,8.00
2023-08-05T02:24:57.004Z,5.00
2023-08-05T02:27:25.601Z,6.50
2023-08-05T02:29:53.609Z,5.00
2023-08-05T02:32:21.659Z,6.50
2023-08-05T02:37:17.529Z,6.00
2023-08-05T02:39:45.464Z,6.50
2023-08-05T02:42:14.392Z,5.00
2023-08-05T02:44:43.383Z,8.00
2023-08-05T02:47:12.539Z,6.00
2023-08-05T02:49:40.669Z,8.00
2023-08-05T02:52:08.610Z,6.50
2023-08-05T02:54:36.472Z,5.00
2023-08-05T02:57:04.901Z,5.50
2023-08-05T02:59:32.978Z,5.00
2023-08-05T03:02:01.078Z,5.00
2023-08-05T03:04:29.080Z,8.00
2023-08-05T03:06:57.047Z,7.00
2023-08-05T03:14:20.507Z,8.00
2023-08-05T03:16:49.639Z,4.00
2023-08-05T03:19:20.365Z,7.00
2023-08-05T03:21:48.850Z,6.00
2023-08-05T03:24:16.862Z,5.00
2023-08-05T03:26:47.683Z,5.00
2023-08-05T03:29:16.506Z,3.50
2023-08-05T03:31:45.091Z,4.00
2023-08-05T03:34:13.935Z,7.00
2023-08-05T03:36:41.926Z,6.00
2023-08-05T03:39:10.127Z,6.00
2023-08-05T03:41:38.172Z,6.00
2023-08-05T03:44:06.109Z,7.00
2023-08-05T03:46:34.123Z,5.00
2023-08-05T03:49:03.576Z,4.00
2023-08-05T03:51:31.800Z,6.00
2023-08-05T03:54:01.896Z,6.00
2023-08-05T03:56:30.049Z,6.00
2023-08-05T03:58:58.753Z,6.00
2023-08-05T04:01:27.985Z,6.00
2023-08-05T04:03:56.843Z,4.00
2023-08-05T04:08:55.373Z,3.00
2023-08-05T04:11:23.381Z,5.00
2023-08-05T04:13:54.058Z,5.00
2023-08-05T04:16:24.045Z,5.50
2023-08-05T04:18:53.544Z,6.00
2023-08-05T04:21:24.668Z,7.00
2023-08-05T04:23:53.235Z,5.00
2023-08-05T04:28:49.151Z,6.00
2023-08-05T04:31:17.872Z,7.00
2023-08-05T04:33:48.120Z,5.00
2023-08-05T04:36:16.064Z,6.00
2023-08-05T04:38:44.029Z,6.50
2023-08-05T04:41:11.926Z,5.00
2023-08-05T04:43:39.839Z,6.00
2023-08-05T04:46:07.772Z,5.00
2023-08-05T04:48:35.782Z,4.00
2023-08-05T04:53:31.811Z,5.00
2023-08-05T04:55:59.667Z,7.00
2023-08-05T04:58:28.238Z,5.00
2023-08-05T05:00:59.442Z,9.00
2023-08-05T05:03:27.472Z,6.00
2023-08-05T05:05:56.466Z,5.00
2023-08-05T05:08:25.089Z,7.00
2023-08-05T05:10:53.212Z,5.50
2023-08-05T05:13:21.125Z,5.00
2023-08-05T05:15:49.675Z,5.00
2023-08-05T05:18:17.541Z,7.00
2023-08-05T05:20:49.437Z,5.00
2023-08-05T05:23:17.922Z,6.00
2023-08-05T05:25:45.905Z,6.00
2023-08-05T05:28:13.838Z,7.00
2023-08-05T05:30:41.827Z,6.00
2023-08-05T05:33:09.756Z,5.00
2023-08-05T05:35:37.744Z,7.00
2023-08-05T05:38:05.700Z,7.00
2023-08-05T05:40:33.619Z,5.33
2023-08-05T05:43:01.598Z,5.50
2023-08-05T05:47:57.690Z,7.00
2023-08-05T05:50:25.609Z,7.00
2023-08-05T05:52:55.484Z,7.50
2023-08-05T05:55:23.485Z,8.50
2023-08-05T05:57:51.346Z,8.00
2023-08-05T06:00:19.469Z,6.00
2023-08-05T06:02:47.354Z,7.00
2023-08-05T06:05:15.447Z,7.00
2023-08-05T06:07:43.527Z,5.50
2023-08-05T06:10:11.743Z,5.00
2023-08-05T06:12:39.615Z,6.00
2023-08-05T06:15:09.004Z,7.00
2023-08-05T06:17:37.112Z,6.00
2023-08-05T06:20:05.861Z,6.00
2023-08-05T06:22:33.764Z,6.00
2023-08-05T06:25:01.685Z,5.00
2023-08-05T06:27:30.197Z,7.00
2023-08-05T06:29:58.332Z,6.00
2023-08-05T06:32:26.255Z,6.00
2023-08-05T06:34:54.922Z,7.00
2023-08-05T06:37:23.144Z,6.00
2023-08-05T06:39:51.189Z,7.00
2023-08-05T06:42:19.257Z,7.00
2023-08-05T06:44:50.705Z,9.00
2023-08-05T06:47:18.704Z,8.00
2023-08-05T06:49:46.681Z,5.00
2023-08-05T06:52:14.747Z,6.00
2023-08-05T06:54:42.609Z,7.00
2023-08-05T06:57:10.595Z,4.00
2023-08-05T06:59:38.592Z,7.00
2023-08-05T07:02:07.209Z,8.00
2023-08-05T07:04:35.252Z,6.50
2023-08-05T07:07:03.081Z,6.50
2023-08-05T07:09:31.333Z,8.00
2023-08-05T07:11:59.310Z,6.50
2023-08-05T07:14:29.558Z,6.00
2023-08-05T07:21:53.329Z,8.00
2023-08-05T07:24:21.624Z,7.00
2023-08-05T07:26:49.527Z,8.00
2023-08-05T07:29:17.418Z,9.00
2023-08-05T07:31:45.442Z,7.50
2023-08-05T07:34:14.126Z,8.50
2023-08-05T07:36:44.502Z,11.50
2023-08-05T07:39:12.682Z,9.00
2023-08-05T07:41:40.792Z,10.00
2023-08-05T07:44:10.967Z,10.00
2023-08-05T07:46:41.851Z,11.00
2023-08-05T07:49:12.228Z,9.00
2023-08-05T07:51:46.441Z,9.00
2023-08-05T07:54:15.083Z,9.00
2023-08-05T07:56:43.273Z,8.00
2023-08-05T07:59:14.114Z,10.00
2023-08-05T08:01:46.679Z,9.00
2023-08-05T08:04:16.217Z,12.00
2023-08-05T08:06:46.400Z,10.00
2023-08-05T08:09:14.712Z,10.00
2023-08-05T08:11:42.744Z,8.00
2023-08-05T08:14:10.765Z,14.00
2023-08-05T08:16:38.725Z,10.00
2023-08-05T08:19:08.555Z,11.00
2023-08-05T08:21:36.531Z,7.00
2023-08-05T08:24:04.530Z,11.00
2023-08-05T08:26:32.501Z,13.50
2023-08-05T08:29:00.346Z,12.00
2023-08-05T08:31:31.712Z,10.00
2023-08-05T08:33:59.829Z,10.00
2023-08-05T08:38:55.640Z,10.00
2023-08-05T08:41:24.813Z,10.00
2023-08-05T08:43:52.873Z,10.00
2023-08-05T08:46:20.887Z,9.00
2023-08-05T08:48:52.724Z,11.00
2023-08-05T08:51:21.993Z,9.00
2023-08-05T08:53:49.973Z,13.00
2023-08-05T08:56:17.954Z,10.00
2023-08-05T08:58:46.020Z,10.00
2023-08-05T09:01:14.365Z,8.33
2023-08-05T09:03:42.431Z,10.00
2023-08-05T09:06:10.532Z,9.50
2023-08-05T09:08:38.505Z,11.00
2023-08-05T09:11:06.515Z,8.50
2023-08-05T09:13:34.422Z,8.00
2023-08-05T09:16:02.591Z,6.00
2023-08-05T09:18:31.822Z,7.00
2023-08-05T09:21:00.887Z,7.00
2023-08-05T09:23:28.993Z,11.00
2023-08-05T09:25:57.008Z,9.00
2023-08-05T09:28:34.222Z,9.00
2023-08-05T09:33:45.840Z,9.00
2023-08-05T09:36:14.421Z,5.00
2023-08-05T09:38:46.286Z,8.00
2023-08-05T09:41:15.096Z,10.50
2023-08-05T09:43:46.828Z,8.00
2023-08-05T09:46:15.234Z,6.00
2023-08-05T09:51:14.892Z,5.00
2023-08-05T09:53:43.007Z,4.00
2023-08-05T09:56:11.638Z,6.50
2023-08-05T09:58:39.652Z,6.00
2023-08-05T10:01:08.848Z,7.00
2023-08-05T10:03:38.840Z,6.00
2023-08-05T10:06:07.614Z,7.00
2023-08-05T10:08:37.488Z,6.00
2023-08-05T10:11:05.627Z,7.00
2023-08-05T10:13:38.400Z,5.00
2023-08-05T10:16:07.618Z,5.00
2023-08-05T10:18:36.258Z,5.00
2023-08-05T10:21:08.759Z,6.00
2023-08-05T10:23:37.221Z,6.00
2023-08-05T10:26:05.802Z,6.00
2023-08-05T10:28:36.544Z,7.00
2023-08-05T10:31:05.936Z,5.50
2023-08-05T10:34:10.209Z,5.00
2023-08-05T10:36:43.053Z,7.00
2023-08-05T10:39:44.969Z,7.00
2023-08-05T10:42:31.442Z,5.00
2023-08-05T10:45:00.022Z,8.00
2023-08-05T10:47:28.129Z,5.00
2023-08-05T10:50:01.447Z,4.00
2023-08-05T10:52:30.660Z,5.00
2023-08-05T10:54:58.835Z,5.00
2023-08-05T10:57:35.932Z,7.00
2023-08-05T11:00:04.605Z,7.00
2023-08-05T11:07:42.318Z,5.50
2023-08-05T11:10:10.562Z,6.50
2023-08-05T11:12:38.565Z,7.00
2023-08-05T11:15:07.038Z,6.00
2023-08-05T11:17:35.079Z,6.00
2023-08-05T11:20:03.855Z,7.00
2023-08-05T11:22:34.099Z,8.00
2023-08-05T11:25:03.156Z,7.50
2023-08-05T11:27:34.890Z,4.00
2023-08-05T11:30:15.915Z,4.50
2023-08-05T11:32:59.403Z,6.00
2023-08-05T11:35:27.685Z,6.00
2023-08-05T11:40:24.830Z,5.50
2023-08-05T11:42:53.724Z,7.00
2023-08-05T11:45:21.961Z,7.00
2023-08-05T11:47:49.995Z,5.50
2023-08-05T11:50:17.986Z,6.00
2023-08-05T11:52:46.722Z,6.00
2023-08-05T11:55:14.671Z,5.50
2023-08-05T11:57:42.577Z,6.00
2023-08-05T12:00:11.478Z,6.00
2023-08-05T12:02:39.528Z,6.00
2023-08-05T12:05:11.856Z,5.00
2023-08-05T12:07:41.485Z,6.00
2023-08-05T12:10:16.456Z,7.00
2023-08-05T12:12:45.824Z,4.00
2023-08-05T12:15:14.506Z,6.00
2023-08-05T12:17:47.466Z,7.00
2023-08-05T12:20:19.143Z,5.00
2023-08-05T12:22:47.499Z,6.00
2023-08-05T12:25:15.544Z,7.00
2023-08-05T12:27:43.539Z,6.00
2023-08-05T12:30:11.852Z,6.00
2023-08-05T12:32:40.365Z,5.50
2023-08-05T12:35:09.786Z,5.00
2023-08-05T12:37:38.609Z,6.00
2023-08-05T12:40:15.385Z,4.00
2023-08-05T12:42:43.316Z,3.50
2023-08-05T12:45:11.422Z,5.00
2023-08-05T12:47:40.254Z,5.00
2023-08-05T12:50:09.164Z,4.00
2023-08-05T12:52:37.283Z,5.00
2023-08-05T12:55:05.854Z,6.00
2023-08-05T12:57:33.968Z,5.50
2023-08-05T13:00:02.420Z,6.00
2023-08-05T13:02:30.700Z,6.00
2023-08-05T13:04:59.024Z,6.00
2023-08-05T13:07:27.143Z,4.50
2023-08-05T13:09:55.133Z,4.50
2023-08-05T13:12:23.253Z,6.00
2023-08-05T13:14:51.210Z,8.00
2023-08-05T13:17:19.278Z,6.00
2023-08-05T13:19:47.266Z,6.00
2023-08-05T13:22:15.212Z,5.00
2023-08-05T13:24:43.335Z,5.00
2023-08-05T13:27:11.250Z,5.00
2023-08-05T13:29:39.306Z,5.50
2023-08-05T13:32:07.395Z,7.00
2023-08-05T13:34:35.216Z,4.50
2023-08-05T13:37:03.118Z,6.00
2023-08-05T13:39:31.064Z,5.00
2023-08-05T13:42:01.339Z,4.00
2023-08-05T13:44:29.937Z,6.00
2023-08-05T13:46:57.954Z,5.00
2023-08-05T13:49:26.102Z,3.50
2023-08-05T13:51:54.381Z,5.00
2023-08-05T13:54:22.429Z,5.00
2023-08-05T13:56:50.984Z,4.00
2023-08-05T13:59:19.042Z,6.00
2023-08-05T14:01:48.085Z,5.00
2023-08-05T14:04:16.068Z,5.00
2023-08-05T14:06:44.051Z,5.00
2023-08-05T14:09:11.900Z,6.00
2023-08-05T14:11:39.762Z,5.00
2023-08-05T14:19:05.424Z,4.00
2023-08-05T14:21:33.498Z,4.00
2023-08-05T14:24:01.884Z,3.00
2023-08-05T14:26:31.590Z,3.00
2023-08-05T14:29:00.626Z,4.00
2023-08-05T14:31:28.506Z,7.00
2023-08-05T14:33:56.817Z,6.00
2023-08-05T14:36:26.762Z,4.00
2023-08-05T14:38:54.794Z,6.00
2023-08-05T14:41:24.018Z,4.00
2023-08-05T14:43:52.657Z,2.50
2023-08-05T14:46:20.697Z,4.00
2023-08-05T14:48:48.951Z,4.50
2023-08-05T14:53:46.288Z,4.50
2023-08-05T14:56:14.201Z,4.50
2023-08-05T14:58:42.269Z,3.00
2023-08-05T15:01:18.922Z,3.00
2023-08-05T15:03:48.143Z,6.00
2023-08-05T15:06:17.033Z,2.50
2023-08-05T15:08:45.553Z,3.00
2023-08-05T15:11:13.860Z,3.50
2023-08-05T15:13:41.824Z,4.00
2023-08-05T15:16:09.877Z,4.00
2023-08-05T15:18:37.832Z,4.00
2023-08-05T15:21:05.809Z,5.00
2023-08-05T15:26:03.152Z,3.50
2023-08-05T15:28:31.539Z,5.00
2023-08-05T15:30:59.686Z,4.00
2023-08-05T15:33:30.384Z,5.00
2023-08-05T15:38:26.196Z,4.00
2023-08-05T15:41:00.593Z,4.00
2023-08-05T15:45:58.944Z,3.50
2023-08-05T15:48:26.999Z,3.50
2023-08-05T15:50:55.228Z,4.00
2023-08-05T15:53:23.289Z,2.00
2023-08-05T15:56:01.968Z,3.00
2023-08-05T15:58:30.101Z,4.00
2023-08-05T16:01:01.952Z,2.00
2023-08-05T16:03:29.979Z,2.00
2023-08-05T16:06:08.427Z,4.00
2023-08-05T16:08:38.497Z,2.00
2023-08-05T16:11:11.494Z,2.00
2023-08-05T16:13:39.615Z,4.00
2023-08-05T16:16:15.594Z,3.00
2023-08-05T16:18:45.318Z,3.50
2023-08-05T16:21:17.564Z,5.00
2023-08-05T16:23:45.990Z,3.00
2023-08-05T16:26:14.936Z,4.00
2023-08-05T16:28:43.379Z,4.00
2023-08-05T16:31:11.334Z,4.00
2023-08-05T16:33:40.039Z,3.00
2023-08-05T16:36:09.377Z,4.00
2023-08-05T16:38:37.586Z,3.50
2023-08-05T16:41:05.497Z,2.50
2023-08-05T16:43:33.410Z,4.00
2023-08-05T16:46:01.375Z,3.00
2023-08-05T16:48:29.302Z,5.00
2023-08-05T16:50:57.312Z,6.00
2023-08-05T16:53:25.303Z,5.00
2023-08-05T16:55:53.316Z,5.00
2023-08-05T16:58:21.250Z,5.00
2023-08-05T17:00:49.403Z,4.00
2023-08-05T17:03:17.458Z,5.00
2023-08-05T17:05:45.314Z,7.00
2023-08-05T17:08:13.397Z,6.00
2023-08-05T17:10:41.357Z,6.00
2023-08-05T17:13:09.427Z,6.00
2023-08-05T17:15:37.289Z,6.00
2023-08-05T17:18:05.925Z,6.50
2023-08-05T17:20:34.078Z,5.50
2023-08-05T17:25:29.882Z,6.50
2023-08-05T17:27:58.379Z,6.00
2023-08-05T17:30:26.431Z,5.00
2023-08-05T17:32:54.462Z,6.00
2023-08-05T17:35:22.419Z,7.50
2023-08-05T17:37:50.478Z,7.00
2023-08-05T17:40:18.417Z,5.50
2023-08-05T17:42:46.428Z,7.00
2023-08-05T17:45:16.331Z,8.00
2023-08-05T17:50:12.466Z,9.00
2023-08-05T17:52:40.469Z,6.50
2023-08-05T17:57:36.551Z,7.00
2023-08-05T18:00:05.321Z,5.50
2023-08-05T18:02:33.482Z,7.00
2023-08-05T18:05:01.492Z,8.00
2023-08-05T18:09:59.491Z,6.50
2023-08-05T18:12:28.779Z,7.50
2023-08-05T18:14:56.747Z,8.00
2023-08-05T18:17:24.596Z,9.00
2023-08-05T18:19:52.498Z,7.00
2023-08-05T18:22:20.531Z,8.00
2023-08-05T18:24:48.602Z,8.00
2023-08-05T18:27:17.382Z,8.00
2023-08-05T18:29:45.359Z,6.50
2023-08-05T18:32:16.387Z,8.00
2023-08-05T18:34:44.266Z,8.00
2023-08-05T18:37:12.449Z,9.00
2023-08-05T18:39:40.344Z,6.00
2023-08-05T18:42:08.471Z,5.00
2023-08-05T18:44:37.552Z,8.00
2023-08-05T18:47:06.267Z,7.00
2023-08-05T18:49:34.098Z,8.00
2023-08-05T18:52:02.350Z,9.00
2023-08-05T18:54:30.452Z,5.00
2023-08-05T18:59:26.460Z,10.00
2023-08-05T19:01:54.620Z,9.00
2023-08-05T19:04:23.022Z,7.00
2023-08-05T19:06:51.178Z,10.00
2023-08-05T19:11:48.130Z,7.50
2023-08-05T19:16:44.245Z,8.00
2023-08-05T19:19:12.061Z,8.00
2023-08-05T19:21:40.298Z,5.50
2023-08-05T19:24:08.265Z,8.00
2023-08-05T19:26:40.389Z,8.00
2023-08-05T19:31:37.369Z,8.50
2023-08-05T19:34:06.511Z,8.00
2023-08-05T19:36:34.470Z,8.00
2023-08-05T19:41:30.927Z,8.50
2023-08-05T19:43:59.008Z,8.00
2023-08-05T19:46:27.141Z,8.50
2023-08-05T19:48:55.240Z,7.00
2023-08-05T19:51:23.276Z,6.50
2023-08-05T19:53:51.633Z,7.00
2023-08-05T19:56:19.686Z,6.50
2023-08-05T19:58:49.580Z,7.00
2023-08-05T20:03:46.044Z,8.00
2023-08-05T20:06:13.905Z,8.00
2023-08-05T20:08:43.333Z,10.00
2023-08-05T20:11:12.772Z,7.00
2023-08-05T20:13:41.164Z,8.50
2023-08-05T20:16:09.148Z,10.00
2023-08-05T20:18:37.131Z,7.50
2023-08-05T20:21:05.509Z,10.50
2023-08-05T20:23:34.889Z,9.00
2023-08-05T20:26:09.945Z,9.00
2023-08-05T20:28:37.952Z,10.00
2023-08-05T20:31:05.859Z,9.00
2023-08-05T20:33:33.897Z,9.50
2023-08-05T20:36:02.132Z,8.50
2023-08-05T20:38:30.029Z,8.50
2023-08-05T20:40:57.972Z,8.00
2023-08-05T20:43:25.912Z,8.00
2023-08-05T20:45:54.486Z,7.67
2023-08-05T20:48:22.673Z,10.00
2023-08-05T20:50:57.379Z,4.00
2023-08-05T20:53:25.392Z,7.00
2023-08-05T20:55:55.229Z,7.00
2023-08-05T20:58:23.264Z,9.00
2023-08-05T21:01:00.189Z,11.00
2023-08-05T21:03:28.195Z,9.00
2023-08-05T21:06:02.456Z,7.00
2023-08-05T21:08:30.841Z,7.50
2023-08-05T21:11:08.828Z,9.00
2023-08-05T21:13:40.197Z,7.50
2023-08-05T21:18:36.432Z,7.00
2023-08-05T21:23:32.715Z,10.50
2023-08-05T21:26:00.847Z,8.00
2023-08-05T21:28:28.931Z,9.00
2023-08-05T21:30:58.095Z,9.00
2023-08-05T21:33:26.632Z,7.00
2023-08-05T21:35:55.303Z,7.50
2023-08-05T21:38:23.262Z,7.00
2023-08-05T21:40:51.458Z,8.00
2023-08-05T21:43:19.584Z,8.00
2023-08-05T21:45:51.822Z,10.00
2023-08-05T21:48:20.605Z,9.00
2023-08-05T21:53:16.842Z,9.00
2023-08-05T21:55:45.746Z,9.00
2023-08-05T21:58:13.913Z,5.00
2023-08-05T22:00:41.990Z,9.00
2023-08-05T22:05:40.100Z,9.50
2023-08-05T22:08:08.158Z,9.00
2023-08-05T22:10:37.469Z,10.00
2023-08-05T22:13:05.431Z,11.00
2023-08-05T22:15:33.412Z,9.00
2023-08-05T22:18:01.510Z,5.00
2023-08-05T22:20:29.428Z,5.00
2023-08-05T22:22:57.668Z,2.00
2023-08-05T22:25:25.632Z,3.00
2023-08-05T22:27:53.651Z,3.00
2023-08-05T22:30:21.504Z,1.00
2023-08-05T22:32:49.504Z,2.00
2023-08-05T22:35:17.477Z,2.00
2023-08-05T22:37:45.315Z,2.50
2023-08-05T22:45:09.579Z,1.50
2023-08-05T22:47:37.599Z,2.50
2023-08-05T22:50:06.116Z,2.00
2023-08-05T22:55:01.887Z,3.00
2023-08-05T22:57:29.841Z,1.00
2023-08-05T22:59:57.924Z,1.00
2023-08-05T23:02:26.016Z,2.00
2023-08-05T23:04:54.147Z,3.00
2023-08-05T23:07:22.377Z,3.00
2023-08-05T23:09:52.075Z,3.00
2023-08-05T23:12:21.786Z,2.00
2023-08-05T23:14:50.978Z,3.50
2023-08-05T23:17:19.042Z,1.50
2023-08-05T23:22:16.768Z,3.00
2023-08-05T23:24:44.842Z,2.50
2023-08-05T23:29:40.728Z,3.00
2023-08-05T23:32:08.628Z,2.00
2023-08-05T23:34:36.675Z,3.00
2023-08-05T23:37:04.778Z,4.00
2023-08-05T23:39:32.977Z,5.00
2023-08-05T23:44:28.755Z,2.00
2023-08-05T23:46:56.716Z,3.00
2023-08-05T23:49:24.720Z,3.00
2023-08-05T23:51:52.886Z,1.50
2023-08-05T23:54:21.190Z,2.00
2023-08-05T23:56:49.287Z,2.00
2023-08-05T23:59:17.123Z,2.00
